createdAt,value
2019-02-18T00:04:32.202Z,101067
2019-02-18T00:09:54.886Z,101062
2019-02-18T00:15:18.238Z,101067
2019-02-18T00:20:40.898Z,101067
2019-02-18T00:26:03.707Z,101065
2019-02-18T00:31:26.601Z,101062
2019-02-18T00:36:49.368Z,101063
2019-02-18T00:42:12.071Z,101066
2019-02-18T00:47:34.764Z,101062
2019-02-18T00:52:57.411Z,101065
2019-02-18T00:58:21.142Z,101064
2019-02-18T01:03:43.832Z,101069
2019-02-18T01:09:07.038Z,101070
2019-02-18T01:14:29.813Z,101072
2019-02-18T01:19:52.590Z,101070
2019-02-18T01:25:15.599Z,101070
2019-02-18T01:30:38.368Z,101072
2019-02-18T01:36:01.076Z,101070
2019-02-18T01:41:24.079Z,101071
2019-02-18T01:46:46.775Z,101068
2019-02-18T01:52:09.435Z,101065
2019-02-18T01:57:32.165Z,101062
2019-02-18T02:02:55.531Z,101052
2019-02-18T02:08:19.088Z,101055
2019-02-18T02:13:41.872Z,101048
2019-02-18T02:19:04.542Z,101042
2019-02-18T02:24:27.382Z,101045
2019-02-18T02:29:50.283Z,101040
2019-02-18T02:35:13.204Z,101043
2019-02-18T02:40:35.947Z,101045
2019-02-18T02:45:59.007Z,101045
2019-02-18T02:51:21.892Z,101050
2019-02-18T02:56:44.689Z,101040
2019-02-18T03:02:07.346Z,101039
2019-02-18T03:07:32.137Z,101032
2019-02-18T03:12:55.593Z,101030
2019-02-18T03:18:18.410Z,101031
2019-02-18T03:23:41.759Z,101031
2019-02-18T03:29:04.581Z,101025
2019-02-18T03:34:28.098Z,101030
2019-02-18T03:39:51.618Z,101028
2019-02-18T03:45:14.282Z,101028
2019-02-18T03:50:37.057Z,101021
2019-02-18T03:55:59.737Z,101023
2019-02-18T04:01:22.521Z,101019
2019-02-18T04:06:45.233Z,101028
2019-02-18T04:12:08.031Z,101026
2019-02-18T04:17:30.749Z,101030
2019-02-18T04:22:54.221Z,101030
2019-02-18T04:28:17.006Z,101036
2019-02-18T04:33:39.811Z,101030
2019-02-18T04:39:02.489Z,101038
2019-02-18T04:44:25.176Z,101036
2019-02-18T04:49:47.903Z,101044
2019-02-18T04:55:10.626Z,101038
2019-02-18T05:00:33.318Z,101048
2019-02-18T05:05:57.880Z,101040
2019-02-18T05:11:19.306Z,101038
2019-02-18T05:16:43.385Z,101025
2019-02-18T05:22:06.229Z,101025
2019-02-18T05:27:33.158Z,101014
2019-02-18T05:32:51.770Z,101003
2019-02-18T05:38:23.373Z,101004
2019-02-18T05:43:46.475Z,101002
2019-02-18T05:49:09.202Z,100998
2019-02-18T05:54:31.037Z,100989
2019-02-18T05:59:53.892Z,100985
2019-02-18T06:05:16.617Z,100989
2019-02-18T06:10:39.351Z,100993
2019-02-18T06:16:02.175Z,100987
2019-02-18T06:21:24.966Z,100991
2019-02-18T06:26:47.810Z,100999
2019-02-18T06:32:10.703Z,101000
2019-02-18T06:37:33.526Z,101003
2019-02-18T06:42:56.314Z,101004
2019-02-18T06:48:19.047Z,101000
2019-02-18T06:53:41.797Z,101001
2019-02-18T06:59:05.229Z,101001
2019-02-18T07:04:28.120Z,100996
2019-02-18T07:09:51.674Z,100999
2019-02-18T07:15:14.459Z,101000
2019-02-18T07:20:37.256Z,101004
2019-02-18T07:26:00.044Z,101010
2019-02-18T07:31:22.807Z,101003
2019-02-18T07:36:45.685Z,100998
2019-02-18T07:42:08.350Z,100990
2019-02-18T07:47:31.087Z,100983
2019-02-18T07:52:53.751Z,100983
2019-02-18T07:58:16.523Z,100984
2019-02-18T08:03:40.122Z,100989
2019-02-18T08:09:02.801Z,100981
2019-02-18T08:14:25.671Z,100979
2019-02-18T08:19:49.003Z,100974
2019-02-18T08:25:11.660Z,100974
2019-02-18T08:30:35.067Z,100972
2019-02-18T08:35:58.757Z,100977
2019-02-18T08:41:21.661Z,100973
2019-02-18T08:46:44.395Z,100971
2019-02-18T08:52:07.067Z,100975
2019-02-18T08:57:29.850Z,100970
2019-02-18T09:02:52.735Z,100962
2019-02-18T09:08:16.537Z,100959
2019-02-18T09:13:39.487Z,100954
2019-02-18T09:19:02.442Z,100948
2019-02-18T09:24:25.230Z,100945
2019-02-18T09:29:46.979Z,100940
2019-02-18T09:35:09.812Z,100937
2019-02-18T09:40:32.627Z,100939
2019-02-18T09:45:56.600Z,100934
2019-02-18T09:51:20.067Z,100935
2019-02-18T09:56:42.777Z,100929
2019-02-18T10:02:05.461Z,100934
2019-02-18T10:07:29.014Z,100928
2019-02-18T10:12:52.756Z,100919
2019-02-18T10:18:16.587Z,100921
2019-02-18T10:23:39.392Z,100916
2019-02-18T10:29:02.138Z,100904
2019-02-18T10:34:24.976Z,100892
2019-02-18T10:39:47.846Z,100895
2019-02-18T10:45:10.654Z,100885
2019-02-18T10:50:33.797Z,100879
2019-02-18T10:55:56.418Z,100867
2019-02-18T11:01:19.132Z,100859
2019-02-18T11:06:41.885Z,100858
2019-02-18T11:12:05.091Z,100855
2019-02-18T11:17:27.765Z,100847
2019-02-18T11:22:51.416Z,100842
2019-02-18T11:28:14.075Z,100839
2019-02-18T11:33:36.758Z,100837
2019-02-18T11:39:00.197Z,100829
2019-02-18T11:44:22.858Z,100817
2019-02-18T11:49:45.628Z,100815
2019-02-18T11:55:08.369Z,100803
2019-02-18T12:00:31.069Z,100801
2019-02-18T12:05:54.253Z,100794
2019-02-18T12:11:17.365Z,100787
2019-02-18T12:16:40.117Z,100781
2019-02-18T12:22:02.853Z,100770
2019-02-18T12:27:25.665Z,100769
2019-02-18T12:32:50.081Z,100749
2019-02-18T12:38:12.935Z,100744
2019-02-18T12:43:36.244Z,100738
2019-02-18T12:48:58.906Z,100727
2019-02-18T12:54:21.633Z,100722
2019-02-18T12:59:45.211Z,100719
2019-02-18T13:05:07.884Z,100710
2019-02-18T13:10:34.755Z,100707
2019-02-18T13:15:53.318Z,100694
2019-02-18T13:21:16.045Z,100684
2019-02-18T13:26:38.853Z,100673
2019-02-18T13:32:01.582Z,100668
2019-02-18T13:37:24.293Z,100665
2019-02-18T13:42:46.977Z,100659
2019-02-18T13:48:09.815Z,100651
2019-02-18T13:53:32.483Z,100647
2019-02-18T13:58:55.167Z,100643
2019-02-18T14:04:17.939Z,100642
2019-02-18T14:09:40.670Z,100646
2019-02-18T14:15:03.482Z,100640
2019-02-18T14:20:26.246Z,100639
2019-02-18T14:25:48.914Z,100637
2019-02-18T14:31:11.743Z,100631
2019-02-18T14:36:34.437Z,100623
2019-02-18T14:41:57.164Z,100618
2019-02-18T14:47:20.725Z,100611
2019-02-18T14:52:43.491Z,100612
2019-02-18T14:58:06.233Z,100603
2019-02-18T15:03:29.091Z,100603
2019-02-18T15:08:52.707Z,100601
2019-02-18T15:14:15.358Z,100593
2019-02-18T15:19:41.502Z,100581
2019-02-18T15:25:04.877Z,100583
2019-02-18T15:30:27.629Z,100569
2019-02-18T15:35:49.368Z,100569
2019-02-18T15:41:12.048Z,100556
2019-02-18T15:46:34.790Z,100552
2019-02-18T15:51:57.632Z,100544
2019-02-18T15:57:20.357Z,100536
2019-02-18T16:02:43.357Z,100525
2019-02-18T16:08:06.735Z,100520
2019-02-18T16:13:29.538Z,100515
2019-02-18T16:18:52.229Z,100519
2019-02-18T16:24:19.831Z,100515
2019-02-18T16:29:38.666Z,100518
2019-02-18T16:35:01.425Z,100520
2019-02-18T16:40:24.134Z,100513
2019-02-18T16:45:46.925Z,100519
2019-02-18T16:51:09.849Z,100516
2019-02-18T16:56:32.548Z,100515
2019-02-18T17:01:55.698Z,100519
2019-02-18T17:07:18.479Z,100527
2019-02-18T17:12:41.277Z,100528
2019-02-18T17:18:03.969Z,100527
2019-02-18T17:23:26.644Z,100522
2019-02-18T17:28:49.488Z,100523
2019-02-18T17:34:12.249Z,100519
2019-02-18T17:39:35.280Z,100516
2019-02-18T17:44:58.090Z,100518
2019-02-18T17:50:20.800Z,100510
2019-02-18T17:55:44.733Z,100517
2019-02-18T18:01:07.429Z,100514
2019-02-18T18:06:30.182Z,100515
2019-02-18T18:11:52.936Z,100519
2019-02-18T18:17:15.683Z,100517
2019-02-18T18:22:38.420Z,100509
2019-02-18T18:28:01.874Z,100502
2019-02-18T18:33:24.790Z,100499
2019-02-18T18:38:48.313Z,100502
2019-02-18T18:44:11.805Z,100504
2019-02-18T18:49:34.860Z,100509
2019-02-18T18:54:57.628Z,100507
2019-02-18T19:00:20.308Z,100513
2019-02-18T19:05:43.036Z,100527
2019-02-18T19:11:06.068Z,100523
2019-02-18T19:16:29.237Z,100525
2019-02-18T19:21:51.944Z,100531
2019-02-18T19:27:15.176Z,100544
2019-02-18T19:32:38.355Z,100548
2019-02-18T19:38:00.872Z,100556
2019-02-18T19:43:21.820Z,100551
2019-02-18T19:48:44.981Z,100545
2019-02-18T19:54:08.900Z,100547
2019-02-18T19:59:31.964Z,100545
2019-02-18T20:04:55.027Z,100543
2019-02-18T20:10:17.941Z,100540
2019-02-18T20:15:40.870Z,100545
2019-02-18T20:21:06.499Z,100538
2019-02-18T20:26:28.166Z,100535
2019-02-18T20:31:51.211Z,100536
2019-02-18T20:37:14.975Z,100551
2019-02-18T20:42:37.879Z,100549
2019-02-18T20:48:00.846Z,100544
2019-02-18T20:53:23.913Z,100540
2019-02-18T20:58:47.772Z,100542
2019-02-18T21:04:10.686Z,100542
2019-02-18T21:09:33.812Z,100542
2019-02-18T21:14:57.698Z,100540
2019-02-18T21:20:20.578Z,100537
2019-02-18T21:25:43.616Z,100536
2019-02-18T21:31:06.589Z,100537
2019-02-18T21:36:29.864Z,100541
2019-02-18T21:41:52.869Z,100547
2019-02-18T21:47:15.758Z,100547
2019-02-18T21:52:38.927Z,100545
2019-02-18T21:58:00.853Z,100545
2019-02-18T22:03:23.793Z,100537
2019-02-18T22:08:46.489Z,100542
2019-02-18T22:14:09.267Z,100539
2019-02-18T22:19:32.138Z,100545
2019-02-18T22:24:54.906Z,100540
2019-02-18T22:30:17.762Z,100550
2019-02-18T22:35:40.544Z,100543
2019-02-18T22:41:04.357Z,100532
2019-02-18T22:46:27.753Z,100538
2019-02-18T22:51:50.489Z,100539
2019-02-18T22:57:13.181Z,100542
2019-02-18T23:02:35.884Z,100542
2019-02-18T23:08:00.640Z,100540
2019-02-18T23:13:23.345Z,100532
2019-02-18T23:18:46.138Z,100533
2019-02-18T23:24:08.971Z,100538
2019-02-18T23:29:31.737Z,100535
2019-02-18T23:34:54.486Z,100534
2019-02-18T23:40:17.394Z,100536
2019-02-18T23:45:40.204Z,100542
2019-02-18T23:51:02.955Z,100543
2019-02-18T23:56:25.722Z,100547
